EWG7865 LIRN-EDDH
Flight info
| Callsign | EWG7865 |
|---|---|
| Flight time | N/A |
| Altitude | 38000 |
| Route | ALAXI DCT INSOX DCT TINIX DCT UNUMU DCT LOBSI DCT LAPAB DCT GIKEB DCT EKPEB DCT BRENO DCT KONIN DCT ERNAS M726 KEMES DCT GASKA DCT ELNAT P605 NOLGO NOLGO3P |
| Aircraft | A319/M-SDE3FGHIRWY/LB1 |
Departure
| Time | N/A |
|---|---|
| Airport | Naples International Airport (LIRN) |
Arrival
| Time | 2026-04-24 20:22 |
|---|---|
| Airport | Hamburg Helmut Schmidt Airport (EDDH) |
| Time | Latitude | Longitude | Altitude | Speed | Heading |
|---|---|---|---|---|---|
| 2026-04-24 18:54 | 45.50971 | 11.97195 | 38051 ft | 438 kts | 347° |
| 2026-04-24 18:55 | 45.59795 | 11.93724 | 38056 ft | 438 kts | 346° |
| 2026-04-24 18:56 | 45.65689 | 11.91397 | 38059 ft | 439 kts | 346° |
| 2026-04-24 18:56 | 45.71576 | 11.89057 | 38063 ft | 439 kts | 346° |
| 2026-04-24 18:57 | 45.77457 | 11.86728 | 38067 ft | 439 kts | 346° |
| 2026-04-24 18:57 | 45.83347 | 11.84391 | 38075 ft | 439 kts | 346° |
| 2026-04-24 18:58 | 45.89240 | 11.82038 | 38080 ft | 439 kts | 346° |
| 2026-04-24 18:58 | 45.95103 | 11.79687 | 38092 ft | 439 kts | 346° |
| 2026-04-24 18:59 | 46.00993 | 11.77329 | 38095 ft | 439 kts | 346° |
| 2026-04-24 18:59 | 46.06892 | 11.74968 | 38087 ft | 440 kts | 345° |
| 2026-04-24 19:00 | 46.12783 | 11.72597 | 38086 ft | 440 kts | 345° |
| 2026-04-24 19:00 | 46.18674 | 11.70211 | 38082 ft | 439 kts | 345° |
| 2026-04-24 19:01 | 46.24569 | 11.67823 | 38074 ft | 440 kts | 345° |
| 2026-04-24 19:01 | 46.30461 | 11.65429 | 38051 ft | 440 kts | 345° |
| 2026-04-24 19:02 | 46.35358 | 11.63442 | 38044 ft | 440 kts | 345° |
| 2026-04-24 19:02 | 46.42213 | 11.60662 | 38038 ft | 440 kts | 345° |
| 2026-04-24 19:03 | 46.48118 | 11.58253 | 38034 ft | 440 kts | 345° |
| 2026-04-24 19:03 | 46.54017 | 11.55832 | 38033 ft | 440 kts | 345° |
| 2026-04-24 19:04 | 46.59907 | 11.53415 | 38036 ft | 440 kts | 345° |
| 2026-04-24 19:04 | 46.65814 | 11.50991 | 38053 ft | 440 kts | 345° |
| 2026-04-24 19:05 | 46.70716 | 11.48977 | 38067 ft | 440 kts | 345° |
| 2026-04-24 19:05 | 46.76611 | 11.46541 | 38083 ft | 440 kts | 344° |
| 2026-04-24 19:06 | 46.82498 | 11.44102 | 38098 ft | 440 kts | 344° |
| 2026-04-24 19:06 | 46.88390 | 11.41661 | 38107 ft | 439 kts | 344° |
| 2026-04-24 19:07 | 46.94274 | 11.39226 | 38115 ft | 439 kts | 344° |
| 2026-04-24 19:07 | 47.00272 | 11.37632 | 38127 ft | 439 kts | 358° |
| 2026-04-24 19:08 | 47.06377 | 11.37578 | 38128 ft | 438 kts | 359° |
| 2026-04-24 19:08 | 47.12237 | 11.37536 | 38135 ft | 439 kts | 359° |
| 2026-04-24 19:09 | 47.17542 | 11.37494 | 38144 ft | 439 kts | 359° |
| 2026-04-24 19:09 | 47.23618 | 11.37426 | 38145 ft | 439 kts | 359° |
| 2026-04-24 19:10 | 47.29738 | 11.37355 | 38146 ft | 439 kts | 359° |
| 2026-04-24 19:10 | 47.35858 | 11.37295 | 38143 ft | 439 kts | 359° |
| 2026-04-24 19:11 | 47.41976 | 11.37242 | 38140 ft | 439 kts | 359° |
| 2026-04-24 19:11 | 47.48102 | 11.37183 | 38136 ft | 439 kts | 359° |
| 2026-04-24 19:12 | 47.54219 | 11.37115 | 38135 ft | 439 kts | 359° |
| 2026-04-24 19:12 | 47.60299 | 11.37049 | 38131 ft | 439 kts | 358° |
| 2026-04-24 19:13 | 47.65418 | 11.37007 | 38134 ft | 439 kts | 358° |
| 2026-04-24 19:13 | 47.72521 | 11.36781 | 38141 ft | 439 kts | 356° |
| 2026-04-24 19:14 | 47.78618 | 11.36266 | 38148 ft | 439 kts | 355° |
| 2026-04-24 19:14 | 47.83200 | 11.35848 | 38156 ft | 439 kts | 355° |
| 2026-04-24 19:15 | 47.89307 | 11.35349 | 38166 ft | 439 kts | 355° |
| 2026-04-24 19:15 | 47.95411 | 11.34899 | 38168 ft | 439 kts | 355° |
| 2026-04-24 19:16 | 48.04578 | 11.34216 | 38176 ft | 440 kts | 355° |
| 2026-04-24 19:16 | 48.10699 | 11.33743 | 38179 ft | 440 kts | 355° |
| 2026-04-24 19:17 | 48.16782 | 11.33284 | 38178 ft | 440 kts | 355° |
| 2026-04-24 19:17 | 48.22898 | 11.32825 | 38175 ft | 440 kts | 355° |
| 2026-04-24 19:18 | 48.29023 | 11.32359 | 38172 ft | 440 kts | 355° |
| 2026-04-24 19:18 | 48.35139 | 11.31882 | 38158 ft | 440 kts | 354° |
| 2026-04-24 19:19 | 48.41258 | 11.31401 | 38159 ft | 440 kts | 354° |
| 2026-04-24 19:19 | 48.47377 | 11.30924 | 38160 ft | 440 kts | 354° |
| 2026-04-24 19:20 | 48.51902 | 11.30577 | 38158 ft | 440 kts | 354° |
| 2026-04-24 19:20 | 48.57466 | 11.29882 | 38147 ft | 440 kts | 354° |
| 2026-04-24 19:21 | 48.63512 | 11.29527 | 38147 ft | 441 kts | 355° |
| 2026-04-24 19:21 | 48.69649 | 11.29204 | 38146 ft | 440 kts | 355° |
| 2026-04-24 19:22 | 48.75762 | 11.28759 | 38147 ft | 440 kts | 354° |
| 2026-04-24 19:22 | 48.81883 | 11.28252 | 38150 ft | 440 kts | 354° |
| 2026-04-24 19:23 | 48.88007 | 11.27759 | 38155 ft | 440 kts | 354° |
| 2026-04-24 19:23 | 48.94119 | 11.27280 | 38153 ft | 440 kts | 354° |
| 2026-04-24 19:24 | 49.00235 | 11.26799 | 38155 ft | 440 kts | 353° |
| 2026-04-24 19:24 | 49.06324 | 11.26316 | 38154 ft | 440 kts | 353° |
| 2026-04-24 19:25 | 49.12476 | 11.25828 | 38156 ft | 440 kts | 353° |
| 2026-04-24 19:25 | 49.18550 | 11.25344 | 38152 ft | 440 kts | 353° |
| 2026-04-24 19:26 | 49.22791 | 11.24999 | 38153 ft | 440 kts | 353° |
| 2026-04-24 19:26 | 49.27835 | 11.24589 | 38151 ft | 440 kts | 353° |
| 2026-04-24 19:27 | 49.33912 | 11.24114 | 38151 ft | 440 kts | 353° |
| 2026-04-24 19:27 | 49.40026 | 11.23629 | 38152 ft | 440 kts | 353° |
| 2026-04-24 19:28 | 49.46141 | 11.23135 | 38153 ft | 440 kts | 353° |
| 2026-04-24 19:28 | 49.51950 | 11.22371 | 38146 ft | 435 kts | 344° |
| 2026-04-24 19:29 | 49.57548 | 11.19170 | 38149 ft | 426 kts | 326° |
| 2026-04-24 19:29 | 49.60003 | 11.16645 | 38148 ft | 422 kts | 320° |
| 2026-04-24 19:30 | 49.64698 | 11.11195 | 38143 ft | 423 kts | 320° |
| 2026-04-24 19:30 | 49.69404 | 11.05733 | 38147 ft | 423 kts | 320° |
| 2026-04-24 19:31 | 49.74106 | 11.00265 | 38156 ft | 423 kts | 320° |
| 2026-04-24 19:31 | 49.78806 | 10.94781 | 38165 ft | 423 kts | 319° |
| 2026-04-24 19:32 | 49.83496 | 10.89286 | 38171 ft | 423 kts | 319° |
| 2026-04-24 19:32 | 49.88191 | 10.83783 | 38186 ft | 423 kts | 319° |
| 2026-04-24 19:33 | 49.92668 | 10.78528 | 38189 ft | 423 kts | 319° |
| 2026-04-24 19:33 | 49.96531 | 10.73981 | 38189 ft | 423 kts | 319° |
| 2026-04-24 19:34 | 50.01185 | 10.68481 | 38194 ft | 423 kts | 319° |
| 2026-04-24 19:34 | 50.06247 | 10.63751 | 38187 ft | 427 kts | 328° |
| 2026-04-24 19:35 | 50.10645 | 10.60209 | 38179 ft | 427 kts | 328° |
| 2026-04-24 19:35 | 50.16815 | 10.55198 | 38177 ft | 428 kts | 328° |
| 2026-04-24 19:36 | 50.22106 | 10.50913 | 38177 ft | 428 kts | 328° |
| 2026-04-24 19:36 | 50.27390 | 10.46623 | 38178 ft | 428 kts | 328° |
| 2026-04-24 19:37 | 50.32665 | 10.42331 | 38179 ft | 428 kts | 328° |
| 2026-04-24 19:37 | 50.37950 | 10.38012 | 38182 ft | 428 kts | 327° |
| 2026-04-24 19:38 | 50.43229 | 10.33669 | 38183 ft | 428 kts | 327° |
| 2026-04-24 19:38 | 50.46820 | 10.30716 | 38180 ft | 427 kts | 328° |
| 2026-04-24 19:39 | 50.52085 | 10.26382 | 38184 ft | 427 kts | 328° |
| 2026-04-24 19:39 | 50.57358 | 10.22046 | 38185 ft | 427 kts | 327° |
| 2026-04-24 19:40 | 50.62511 | 10.17785 | 38189 ft | 427 kts | 327° |
| 2026-04-24 19:40 | 50.67478 | 10.13667 | 38191 ft | 427 kts | 327° |
| 2026-04-24 19:41 | 50.72732 | 10.09287 | 38180 ft | 427 kts | 327° |
| 2026-04-24 19:41 | 50.77987 | 10.04902 | 38184 ft | 427 kts | 327° |
| 2026-04-24 19:42 | 50.83213 | 10.00550 | 38176 ft | 427 kts | 327° |
| 2026-04-24 19:42 | 50.88494 | 9.96132 | 38183 ft | 427 kts | 327° |
| 2026-04-24 19:43 | 50.93701 | 9.91753 | 38179 ft | 426 kts | 327° |
| 2026-04-24 19:43 | 50.98933 | 9.87339 | 38177 ft | 426 kts | 327° |
| 2026-04-24 19:44 | 51.04172 | 9.82905 | 38176 ft | 426 kts | 327° |
| 2026-04-24 19:44 | 51.09208 | 9.78634 | 38178 ft | 426 kts | 327° |
| 2026-04-24 19:45 | 51.14447 | 9.74195 | 38178 ft | 426 kts | 327° |
| 2026-04-24 19:45 | 51.19954 | 9.70571 | 38175 ft | 435 kts | 342° |
| 2026-04-24 19:46 | 51.25021 | 9.69854 | 38176 ft | 447 kts | 358° |
| 2026-04-24 19:46 | 51.32264 | 9.71027 | 38174 ft | 449 kts | 0° |
| 2026-04-24 19:47 | 51.36187 | 9.71668 | 38178 ft | 449 kts | 0° |
| 2026-04-24 19:47 | 51.41394 | 9.72510 | 38180 ft | 449 kts | 0° |
| 2026-04-24 19:48 | 51.47616 | 9.73508 | 38182 ft | 449 kts | 0° |
| 2026-04-24 19:48 | 51.56942 | 9.75232 | 38183 ft | 450 kts | 2° |
| 2026-04-24 19:49 | 51.69318 | 9.77643 | 38187 ft | 449 kts | 1° |
| 2026-04-24 19:50 | 51.81715 | 9.79987 | 38186 ft | 448 kts | 2° |
| 2026-04-24 19:51 | 51.91020 | 9.81767 | 38187 ft | 448 kts | 2° |
| 2026-04-24 19:52 | 52.00301 | 9.83575 | 38187 ft | 448 kts | 2° |
| 2026-04-24 19:52 | 52.05849 | 9.84676 | 38189 ft | 447 kts | 2° |
| 2026-04-24 19:53 | 52.12033 | 9.85884 | 38190 ft | 447 kts | 1° |
| 2026-04-24 19:54 | 52.21298 | 9.87678 | 38195 ft | 447 kts | 1° |
| 2026-04-24 19:54 | 52.27398 | 9.89429 | 38201 ft | 452 kts | 10° |
| 2026-04-24 19:55 | 52.32492 | 9.91674 | 38205 ft | 452 kts | 10° |
| 2026-04-24 19:55 | 52.39563 | 9.94778 | 38207 ft | 452 kts | 9° |
| 2026-04-24 19:56 | 52.45635 | 9.97461 | 38189 ft | 452 kts | 9° |
| 2026-04-24 19:56 | 52.51701 | 10.00149 | 38175 ft | 449 kts | 9° |
| 2026-04-24 19:56 | 52.54673 | 10.01476 | 38161 ft | 435 kts | 9° |
| 2026-04-24 19:57 | 52.57567 | 10.02774 | 38170 ft | 429 kts | 9° |
| 2026-04-24 19:57 | 52.63296 | 10.05332 | 37786 ft | 425 kts | 9° |
| 2026-04-24 19:57 | 52.66176 | 10.06608 | 36870 ft | 432 kts | 9° |
| 2026-04-24 19:58 | 52.69044 | 10.07880 | 36222 ft | 432 kts | 9° |
| 2026-04-24 19:58 | 52.71967 | 10.09183 | 35398 ft | 437 kts | 9° |
| 2026-04-24 19:58 | 52.73986 | 10.10085 | 34895 ft | 439 kts | 8° |
| 2026-04-24 19:58 | 52.76897 | 10.11266 | 34296 ft | 434 kts | 4° |
| 2026-04-24 19:59 | 52.79880 | 10.11853 | 33378 ft | 431 kts | 355° |
| 2026-04-24 19:59 | 52.82895 | 10.11964 | 32289 ft | 437 kts | 354° |
| 2026-04-24 19:59 | 52.85969 | 10.12052 | 31189 ft | 444 kts | 354° |
| 2026-04-24 19:59 | 52.89080 | 10.12144 | 30097 ft | 450 kts | 355° |
| 2026-04-24 20:00 | 52.92211 | 10.12247 | 28907 ft | 450 kts | 355° |
| 2026-04-24 20:00 | 52.95354 | 10.12356 | 27751 ft | 451 kts | 356° |
| 2026-04-24 20:00 | 52.98486 | 10.12464 | 26702 ft | 449 kts | 356° |
| 2026-04-24 20:00 | 53.01602 | 10.12569 | 25753 ft | 446 kts | 356° |
| 2026-04-24 20:01 | 53.04679 | 10.12674 | 24382 ft | 452 kts | 357° |
| 2026-04-24 20:01 | 53.07852 | 10.12775 | 23151 ft | 455 kts | 357° |
| 2026-04-24 20:01 | 53.11010 | 10.12878 | 22011 ft | 454 kts | 358° |
| 2026-04-24 20:01 | 53.14145 | 10.12984 | 20887 ft | 445 kts | 358° |
| 2026-04-24 20:02 | 53.16217 | 10.13056 | 20127 ft | 439 kts | 358° |
| 2026-04-24 20:02 | 53.20213 | 10.13201 | 18649 ft | 428 kts | 358° |
| 2026-04-24 20:02 | 53.23163 | 10.13307 | 17458 ft | 419 kts | 358° |
| 2026-04-24 20:02 | 53.26057 | 10.13401 | 16305 ft | 411 kts | 358° |
| 2026-04-24 20:03 | 53.28892 | 10.13488 | 15251 ft | 404 kts | 358° |
| 2026-04-24 20:03 | 53.31648 | 10.13571 | 14256 ft | 397 kts | 358° |
| 2026-04-24 20:03 | 53.34382 | 10.13658 | 13241 ft | 390 kts | 358° |
| 2026-04-24 20:03 | 53.37067 | 10.13747 | 12203 ft | 382 kts | 358° |
| 2026-04-24 20:04 | 53.39696 | 10.13811 | 11167 ft | 373 kts | 356° |
| 2026-04-24 20:04 | 53.42235 | 10.13538 | 10542 ft | 355 kts | 354° |
| 2026-04-24 20:04 | 53.44373 | 10.13277 | 10302 ft | 330 kts | 353° |
| 2026-04-24 20:04 | 53.46584 | 10.12998 | 10071 ft | 307 kts | 353° |
| 2026-04-24 20:05 | 53.48670 | 10.12732 | 9495 ft | 296 kts | 353° |
| 2026-04-24 20:05 | 53.50716 | 10.12464 | 8859 ft | 295 kts | 353° |
| 2026-04-24 20:05 | 53.52756 | 10.12194 | 8366 ft | 292 kts | 353° |
| 2026-04-24 20:05 | 53.54780 | 10.11929 | 7894 ft | 290 kts | 353° |
| 2026-04-24 20:06 | 53.56761 | 10.11938 | 7644 ft | 283 kts | 6° |
| 2026-04-24 20:06 | 53.58603 | 10.12993 | 7405 ft | 279 kts | 25° |
| 2026-04-24 20:06 | 53.60109 | 10.15010 | 7197 ft | 277 kts | 43° |
| 2026-04-24 20:06 | 53.61341 | 10.17484 | 7131 ft | 274 kts | 45° |
| 2026-04-24 20:07 | 53.61966 | 10.18745 | 7133 ft | 274 kts | 45° |
| 2026-04-24 20:07 | 53.63608 | 10.22045 | 7138 ft | 275 kts | 45° |
| 2026-04-24 20:07 | 53.64837 | 10.24513 | 7118 ft | 274 kts | 45° |
| 2026-04-24 20:07 | 53.66051 | 10.26957 | 6834 ft | 271 kts | 45° |
| 2026-04-24 20:08 | 53.67262 | 10.29400 | 6599 ft | 272 kts | 45° |
| 2026-04-24 20:08 | 53.68449 | 10.31803 | 6375 ft | 265 kts | 45° |
| 2026-04-24 20:08 | 53.69611 | 10.34166 | 6239 ft | 252 kts | 45° |
| 2026-04-24 20:08 | 53.70702 | 10.36382 | 6080 ft | 240 kts | 45° |
| 2026-04-24 20:09 | 53.71763 | 10.38528 | 5777 ft | 237 kts | 44° |
| 2026-04-24 20:09 | 53.72804 | 10.40631 | 5441 ft | 235 kts | 44° |
| 2026-04-24 20:09 | 53.73849 | 10.42748 | 5116 ft | 234 kts | 44° |
| 2026-04-24 20:09 | 53.74885 | 10.44849 | 4982 ft | 233 kts | 44° |
| 2026-04-24 20:10 | 53.75923 | 10.46953 | 4986 ft | 234 kts | 44° |
| 2026-04-24 20:10 | 53.76965 | 10.49070 | 4985 ft | 234 kts | 44° |
| 2026-04-24 20:10 | 53.78008 | 10.51192 | 4988 ft | 235 kts | 44° |
| 2026-04-24 20:10 | 53.79051 | 10.53316 | 4984 ft | 235 kts | 44° |
| 2026-04-24 20:11 | 53.80092 | 10.55439 | 4985 ft | 234 kts | 44° |
| 2026-04-24 20:11 | 53.81131 | 10.57558 | 4984 ft | 234 kts | 44° |
| 2026-04-24 20:11 | 53.82276 | 10.59471 | 4981 ft | 227 kts | 27° |
| 2026-04-24 20:11 | 53.83679 | 10.60456 | 4982 ft | 218 kts | 3° |
| 2026-04-24 20:12 | 53.85141 | 10.60140 | 4981 ft | 212 kts | 338° |
| 2026-04-24 20:12 | 53.86506 | 10.59204 | 4982 ft | 212 kts | 335° |
| 2026-04-24 20:12 | 53.87858 | 10.58203 | 4986 ft | 212 kts | 334° |
| 2026-04-24 20:12 | 53.89210 | 10.57193 | 4982 ft | 213 kts | 334° |
| 2026-04-24 20:13 | 53.90561 | 10.56182 | 4984 ft | 213 kts | 334° |
| 2026-04-24 20:13 | 53.91835 | 10.54943 | 4992 ft | 212 kts | 315° |
| 2026-04-24 20:13 | 53.92524 | 10.52753 | 4983 ft | 217 kts | 283° |
| 2026-04-24 20:13 | 53.92331 | 10.50171 | 4983 ft | 230 kts | 251° |
| 2026-04-24 20:14 | 53.91275 | 10.48074 | 4983 ft | 244 kts | 218° |
| 2026-04-24 20:14 | 53.89714 | 10.46834 | 4985 ft | 250 kts | 206° |
| 2026-04-24 20:14 | 53.88087 | 10.45802 | 4985 ft | 250 kts | 205° |
| 2026-04-24 20:14 | 53.86446 | 10.44791 | 4990 ft | 251 kts | 205° |
| 2026-04-24 20:15 | 53.84937 | 10.43440 | 4985 ft | 242 kts | 226° |
| 2026-04-24 20:15 | 53.83829 | 10.41360 | 4984 ft | 237 kts | 237° |
| 2026-04-24 20:15 | 53.82788 | 10.39189 | 4988 ft | 237 kts | 237° |
| 2026-04-24 20:15 | 53.81744 | 10.37028 | 4993 ft | 238 kts | 237° |
| 2026-04-24 20:16 | 53.80706 | 10.34892 | 4992 ft | 238 kts | 236° |
| 2026-04-24 20:16 | 53.79653 | 10.32730 | 4959 ft | 239 kts | 236° |
| 2026-04-24 20:16 | 53.78603 | 10.30574 | 4710 ft | 236 kts | 237° |
| 2026-04-24 20:16 | 53.77562 | 10.28439 | 4424 ft | 233 kts | 237° |
| 2026-04-24 20:17 | 53.76538 | 10.26342 | 4105 ft | 230 kts | 237° |
| 2026-04-24 20:17 | 53.74561 | 10.22297 | 3521 ft | 216 kts | 237° |
| 2026-04-24 20:17 | 53.73621 | 10.20376 | 3233 ft | 209 kts | 237° |
| 2026-04-24 20:18 | 53.73017 | 10.19143 | 3072 ft | 201 kts | 237° |
| 2026-04-24 20:18 | 53.71854 | 10.16767 | 2690 ft | 191 kts | 237° |
| 2026-04-24 20:18 | 53.71021 | 10.15066 | 2437 ft | 186 kts | 238° |
| 2026-04-24 20:18 | 53.70203 | 10.13397 | 2187 ft | 182 kts | 238° |
| 2026-04-24 20:19 | 53.69420 | 10.11803 | 1942 ft | 173 kts | 238° |
| 2026-04-24 20:19 | 53.68677 | 10.10292 | 1704 ft | 161 kts | 237° |
| 2026-04-24 20:19 | 53.67994 | 10.08905 | 1484 ft | 143 kts | 237° |
| 2026-04-24 20:19 | 53.67394 | 10.07687 | 1297 ft | 129 kts | 238° |
| 2026-04-24 20:20 | 53.66839 | 10.06556 | 1124 ft | 122 kts | 238° |
| 2026-04-24 20:20 | 53.66309 | 10.05486 | 900 ft | 122 kts | 237° |
| 2026-04-24 20:20 | 53.65790 | 10.04410 | 742 ft | 117 kts | 237° |
| 2026-04-24 20:20 | 53.65273 | 10.03352 | 561 ft | 115 kts | 236° |
| 2026-04-24 20:21 | 53.64759 | 10.02298 | 419 ft | 119 kts | 236° |
| 2026-04-24 20:21 | 53.64216 | 10.01216 | 269 ft | 120 kts | 236° |
| 2026-04-24 20:21 | 53.63679 | 10.00130 | 117 ft | 120 kts | 235° |
| 2026-04-24 20:21 | 53.63181 | 9.99122 | 49 ft | 101 kts | 236° |
| 2026-04-24 20:22 | 53.62818 | 9.98367 | 44 ft | 58 kts | 228° |
| 2026-04-24 20:22 | 53.62605 | 9.97947 | 41 ft | 39 kts | 230° |
| 2026-04-24 20:22 | 53.62471 | 9.97789 | 39 ft | 21 kts | 162° |
| 2026-04-24 20:22 | 53.62431 | 9.97938 | 46 ft | 13 kts | 79° |
| 2026-04-24 20:23 | 53.62457 | 9.98080 | 45 ft | 13 kts | 56° |
| 2026-04-24 20:23 | 53.62517 | 9.98206 | 47 ft | 14 kts | 51° |
| 2026-04-24 20:23 | 53.62586 | 9.98339 | 47 ft | 16 kts | 50° |
| 2026-04-24 20:23 | 53.62659 | 9.98487 | 47 ft | 17 kts | 50° |
| 2026-04-24 20:24 | 53.62710 | 9.98591 | 47 ft | 18 kts | 50° |
| 2026-04-24 20:24 | 53.62822 | 9.98821 | 47 ft | 20 kts | 51° |
| 2026-04-24 20:24 | 53.62911 | 9.99000 | 47 ft | 21 kts | 50° |
| 2026-04-24 20:24 | 53.62955 | 9.99088 | 47 ft | 14 kts | 50° |
| 2026-04-24 20:25 | 53.63031 | 9.99242 | 47 ft | 15 kts | 52° |
| 2026-04-24 20:25 | 53.63095 | 9.99391 | 47 ft | 17 kts | 56° |
| 2026-04-24 20:25 | 53.63158 | 9.99536 | 46 ft | 14 kts | 52° |
| 2026-04-24 20:25 | 53.63189 | 9.99602 | 47 ft | 6 kts | 51° |
| 2026-04-24 20:26 | 53.63201 | 9.99627 | 48 ft | 1 kts | 51° |
| 2026-04-24 20:26 | 53.63207 | 9.99640 | 48 ft | 1 kts | 50° |
| 2026-04-24 20:26 | 53.63219 | 9.99663 | 49 ft | 6 kts | 50° |
| 2026-04-24 20:26 | 53.63267 | 9.99746 | 49 ft | 13 kts | 44° |
| 2026-04-24 20:27 | 53.63329 | 9.99863 | 49 ft | 14 kts | 50° |
| 2026-04-24 20:27 | 53.63394 | 9.99994 | 49 ft | 15 kts | 50° |
| 2026-04-24 20:27 | 53.63426 | 10.00130 | 49 ft | 12 kts | 110° |
| 2026-04-24 20:27 | 53.63366 | 10.00230 | 49 ft | 13 kts | 167° |
| 2026-04-24 20:28 | 53.63273 | 10.00241 | 49 ft | 14 kts | 175° |
| 2026-04-24 20:28 | 53.63217 | 10.00247 | 49 ft | 5 kts | 176° |
| 2026-04-24 20:28 | 53.63202 | 10.00290 | 49 ft | 5 kts | 101° |
| 2026-04-24 20:28 | 53.63206 | 10.00351 | 48 ft | 1 kts | 86° |
| 2026-04-24 20:29 | 53.63206 | 10.00359 | 49 ft | 2 kts | 86° |
| 2026-04-24 20:29 | 53.63206 | 10.00366 | 49 ft | 0 kts | 86° |